BEL4GV EBBR-LSGG
Flight info
| Callsign | BEL4GV |
|---|---|
| Flight time | 1h 0m |
| Altitude | 35000 |
| Route | ROUSY DCT GTQ DCT MOROK Z24 AKITO |
| Aircraft | A320/M-DE3FGHIJ1LORVWY/H |
Departure
| Time | 2026-05-07 15:37 |
|---|---|
| Airport | Brussels Airport (EBBR) |
Arrival
| Time | 2026-05-07 16:37 |
|---|---|
| Airport | Geneva International Airport (LSGG) |
| Time | Latitude | Longitude | Altitude | Speed | Heading |
|---|---|---|---|---|---|
| 2026-05-07 15:12 | 50.90466 | 4.48785 | 121 ft | 0 kts | 155° |
| 2026-05-07 15:18 | 50.90467 | 4.48785 | 121 ft | 0 kts | 155° |
| 2026-05-07 15:30 | 50.90473 | 4.48780 | 118 ft | 2 kts | 154° |
| 2026-05-07 15:30 | 50.90491 | 4.48765 | 116 ft | 3 kts | 150° |
| 2026-05-07 15:30 | 50.90508 | 4.48749 | 117 ft | 3 kts | 143° |
| 2026-05-07 15:30 | 50.90523 | 4.48729 | 118 ft | 3 kts | 129° |
| 2026-05-07 15:31 | 50.90533 | 4.48704 | 116 ft | 3 kts | 95° |
| 2026-05-07 15:31 | 50.90533 | 4.48687 | 117 ft | 0 kts | 65° |
| 2026-05-07 15:34 | 50.90552 | 4.48754 | 120 ft | 15 kts | 66° |
| 2026-05-07 15:34 | 50.90597 | 4.48912 | 119 ft | 16 kts | 64° |
| 2026-05-07 15:34 | 50.90651 | 4.49082 | 119 ft | 17 kts | 55° |
| 2026-05-07 15:34 | 50.90733 | 4.49118 | 120 ft | 11 kts | 47° |
| 2026-05-07 15:35 | 50.90768 | 4.49223 | 122 ft | 10 kts | 67° |
| 2026-05-07 15:35 | 50.90811 | 4.49378 | 122 ft | 20 kts | 66° |
| 2026-05-07 15:35 | 50.90874 | 4.49589 | 122 ft | 22 kts | 63° |
| 2026-05-07 15:35 | 50.90977 | 4.49635 | 121 ft | 11 kts | 305° |
| 2026-05-07 15:36 | 50.90995 | 4.49505 | 118 ft | 19 kts | 297° |
| 2026-05-07 15:36 | 50.90964 | 4.49285 | 118 ft | 29 kts | 248° |
| 2026-05-07 15:36 | 50.90781 | 4.48650 | 119 ft | 99 kts | 246° |
| 2026-05-07 15:36 | 50.90409 | 4.47358 | 125 ft | 156 kts | 245° |
| 2026-05-07 15:37 | 50.89928 | 4.45686 | 574 ft | 164 kts | 246° |
| 2026-05-07 15:37 | 50.89483 | 4.44030 | 1314 ft | 163 kts | 248° |
| 2026-05-07 15:37 | 50.89011 | 4.42400 | 1986 ft | 163 kts | 233° |
| 2026-05-07 15:37 | 50.88123 | 4.41373 | 2545 ft | 163 kts | 193° |
| 2026-05-07 15:38 | 50.86994 | 4.41441 | 3107 ft | 163 kts | 155° |
| 2026-05-07 15:38 | 50.86115 | 4.42547 | 3505 ft | 173 kts | 125° |
| 2026-05-07 15:38 | 50.85369 | 4.44212 | 3758 ft | 196 kts | 124° |
| 2026-05-07 15:38 | 50.84544 | 4.46077 | 4018 ft | 218 kts | 124° |
| 2026-05-07 15:39 | 50.83627 | 4.48153 | 4323 ft | 242 kts | 124° |
| 2026-05-07 15:39 | 50.82589 | 4.50398 | 4849 ft | 260 kts | 128° |
| 2026-05-07 15:39 | 50.81431 | 4.52607 | 5616 ft | 267 kts | 130° |
| 2026-05-07 15:39 | 50.80193 | 4.54843 | 6333 ft | 271 kts | 132° |
| 2026-05-07 15:40 | 50.78930 | 4.57079 | 7205 ft | 273 kts | 133° |
| 2026-05-07 15:40 | 50.77649 | 4.59342 | 8021 ft | 277 kts | 133° |
| 2026-05-07 15:40 | 50.76358 | 4.61637 | 8847 ft | 281 kts | 133° |
| 2026-05-07 15:40 | 50.75068 | 4.63943 | 9667 ft | 285 kts | 133° |
| 2026-05-07 15:41 | 50.73740 | 4.66320 | 10397 ft | 292 kts | 133° |
| 2026-05-07 15:41 | 50.72341 | 4.68826 | 10645 ft | 315 kts | 132° |
| 2026-05-07 15:41 | 50.70845 | 4.71524 | 10922 ft | 335 kts | 130° |
| 2026-05-07 15:41 | 50.69548 | 4.74575 | 11516 ft | 343 kts | 118° |
| 2026-05-07 15:42 | 50.68631 | 4.78098 | 12212 ft | 349 kts | 107° |
| 2026-05-07 15:42 | 50.67966 | 4.81806 | 12930 ft | 353 kts | 106° |
| 2026-05-07 15:42 | 50.67296 | 4.85521 | 13630 ft | 357 kts | 107° |
| 2026-05-07 15:42 | 50.66464 | 4.89267 | 14266 ft | 360 kts | 116° |
| 2026-05-07 15:43 | 50.65202 | 4.92635 | 14866 ft | 363 kts | 128° |
| 2026-05-07 15:43 | 50.63521 | 4.95608 | 15480 ft | 365 kts | 137° |
| 2026-05-07 15:43 | 50.61695 | 4.98421 | 16091 ft | 368 kts | 137° |
| 2026-05-07 15:43 | 50.59851 | 5.01269 | 16700 ft | 372 kts | 137° |
| 2026-05-07 15:44 | 50.57997 | 5.04137 | 17299 ft | 376 kts | 137° |
| 2026-05-07 15:44 | 50.56143 | 5.07005 | 17887 ft | 379 kts | 137° |
| 2026-05-07 15:44 | 50.54251 | 5.09932 | 18456 ft | 383 kts | 137° |
| 2026-05-07 15:44 | 50.52342 | 5.12880 | 18974 ft | 386 kts | 137° |
| 2026-05-07 15:45 | 50.50411 | 5.15855 | 19528 ft | 389 kts | 137° |
| 2026-05-07 15:45 | 50.48473 | 5.18844 | 20063 ft | 392 kts | 137° |
| 2026-05-07 15:45 | 50.46518 | 5.21856 | 20598 ft | 395 kts | 137° |
| 2026-05-07 15:45 | 50.44548 | 5.24883 | 21127 ft | 398 kts | 137° |
| 2026-05-07 15:46 | 50.40574 | 5.30984 | 22171 ft | 404 kts | 137° |
| 2026-05-07 15:46 | 50.38547 | 5.34086 | 22671 ft | 407 kts | 137° |
| 2026-05-07 15:46 | 50.36534 | 5.37163 | 23162 ft | 410 kts | 137° |
| 2026-05-07 15:47 | 50.34483 | 5.40294 | 23640 ft | 413 kts | 137° |
| 2026-05-07 15:47 | 50.32419 | 5.43438 | 24038 ft | 415 kts | 137° |
| 2026-05-07 15:47 | 50.30360 | 5.46574 | 24425 ft | 418 kts | 137° |
| 2026-05-07 15:47 | 50.28229 | 5.49816 | 24812 ft | 420 kts | 137° |
| 2026-05-07 15:48 | 50.26154 | 5.52964 | 25178 ft | 423 kts | 137° |
| 2026-05-07 15:48 | 50.24035 | 5.56177 | 25556 ft | 425 kts | 137° |
| 2026-05-07 15:48 | 50.21897 | 5.59413 | 25925 ft | 427 kts | 137° |
| 2026-05-07 15:48 | 50.19757 | 5.62646 | 26285 ft | 429 kts | 137° |
| 2026-05-07 15:49 | 50.17596 | 5.65905 | 26639 ft | 432 kts | 137° |
| 2026-05-07 15:49 | 50.15451 | 5.69139 | 26989 ft | 434 kts | 137° |
| 2026-05-07 15:49 | 50.13249 | 5.72407 | 27342 ft | 435 kts | 141° |
| 2026-05-07 15:49 | 50.10748 | 5.75054 | 27693 ft | 435 kts | 152° |
| 2026-05-07 15:50 | 50.09004 | 5.76617 | 27918 ft | 436 kts | 152° |
| 2026-05-07 15:50 | 50.05498 | 5.79724 | 28342 ft | 439 kts | 152° |
| 2026-05-07 15:50 | 50.02836 | 5.82065 | 28647 ft | 441 kts | 152° |
| 2026-05-07 15:50 | 50.00144 | 5.84424 | 28949 ft | 443 kts | 152° |
| 2026-05-07 15:51 | 49.98364 | 5.85983 | 29137 ft | 445 kts | 152° |
| 2026-05-07 15:51 | 49.95657 | 5.88358 | 29434 ft | 447 kts | 152° |
| 2026-05-07 15:51 | 49.92943 | 5.90740 | 29703 ft | 449 kts | 152° |
| 2026-05-07 15:51 | 49.90219 | 5.93127 | 29964 ft | 451 kts | 152° |
| 2026-05-07 15:52 | 49.87477 | 5.95528 | 30206 ft | 453 kts | 152° |
| 2026-05-07 15:52 | 49.84729 | 5.97935 | 30419 ft | 455 kts | 152° |
| 2026-05-07 15:52 | 49.81957 | 6.00360 | 30626 ft | 456 kts | 152° |
| 2026-05-07 15:52 | 49.79183 | 6.02778 | 30829 ft | 458 kts | 152° |
| 2026-05-07 15:53 | 49.76433 | 6.05170 | 31022 ft | 460 kts | 152° |
| 2026-05-07 15:53 | 49.73637 | 6.07598 | 31291 ft | 459 kts | 152° |
| 2026-05-07 15:53 | 49.70843 | 6.10020 | 31594 ft | 459 kts | 152° |
| 2026-05-07 15:53 | 49.68055 | 6.12439 | 31920 ft | 458 kts | 152° |
| 2026-05-07 15:54 | 49.65265 | 6.14855 | 32246 ft | 458 kts | 153° |
| 2026-05-07 15:54 | 49.62484 | 6.17260 | 32546 ft | 458 kts | 153° |
| 2026-05-07 15:54 | 49.59738 | 6.19635 | 32825 ft | 457 kts | 153° |
| 2026-05-07 15:54 | 49.56962 | 6.22036 | 33078 ft | 457 kts | 153° |
| 2026-05-07 15:55 | 49.54187 | 6.24431 | 33353 ft | 457 kts | 153° |
| 2026-05-07 15:55 | 49.51407 | 6.26826 | 33631 ft | 457 kts | 153° |
| 2026-05-07 15:55 | 49.48626 | 6.29218 | 33878 ft | 457 kts | 153° |
| 2026-05-07 15:55 | 49.45836 | 6.31608 | 34090 ft | 458 kts | 153° |
| 2026-05-07 15:56 | 49.43075 | 6.33967 | 34301 ft | 459 kts | 153° |
| 2026-05-07 15:56 | 49.40281 | 6.36351 | 34546 ft | 458 kts | 153° |
| 2026-05-07 15:56 | 49.37493 | 6.38729 | 34784 ft | 458 kts | 153° |
| 2026-05-07 15:56 | 49.34707 | 6.41107 | 34978 ft | 458 kts | 153° |
| 2026-05-07 15:57 | 49.31916 | 6.43489 | 35040 ft | 456 kts | 153° |
| 2026-05-07 15:57 | 49.26410 | 6.48180 | 35046 ft | 454 kts | 153° |
| 2026-05-07 15:58 | 49.20883 | 6.52874 | 35049 ft | 453 kts | 153° |
| 2026-05-07 15:58 | 49.15367 | 6.57543 | 35047 ft | 453 kts | 153° |
| 2026-05-07 15:59 | 49.09873 | 6.62171 | 35041 ft | 453 kts | 153° |
| 2026-05-07 15:59 | 49.04330 | 6.66838 | 35036 ft | 454 kts | 153° |
| 2026-05-07 16:00 | 48.98554 | 6.70585 | 35029 ft | 449 kts | 169° |
| 2026-05-07 16:00 | 48.92431 | 6.71383 | 35031 ft | 443 kts | 185° |
| 2026-05-07 16:01 | 48.86246 | 6.71115 | 35017 ft | 444 kts | 184° |
| 2026-05-07 16:01 | 48.80055 | 6.70884 | 35025 ft | 444 kts | 184° |
| 2026-05-07 16:02 | 48.73858 | 6.70653 | 35029 ft | 445 kts | 184° |
| 2026-05-07 16:02 | 48.67697 | 6.70418 | 35033 ft | 445 kts | 184° |
| 2026-05-07 16:03 | 48.61501 | 6.70171 | 35039 ft | 445 kts | 184° |
| 2026-05-07 16:03 | 48.55307 | 6.69924 | 35041 ft | 445 kts | 184° |
| 2026-05-07 16:04 | 48.49144 | 6.69688 | 35044 ft | 445 kts | 184° |
| 2026-05-07 16:04 | 48.42944 | 6.69461 | 35036 ft | 445 kts | 185° |
| 2026-05-07 16:05 | 48.36746 | 6.69216 | 35038 ft | 445 kts | 185° |
| 2026-05-07 16:05 | 48.30529 | 6.68974 | 35044 ft | 445 kts | 184° |
| 2026-05-07 16:06 | 48.24362 | 6.68741 | 35051 ft | 445 kts | 184° |
| 2026-05-07 16:06 | 48.18164 | 6.68505 | 35047 ft | 444 kts | 185° |
| 2026-05-07 16:07 | 48.12008 | 6.68266 | 35052 ft | 444 kts | 185° |
| 2026-05-07 16:07 | 48.05832 | 6.68026 | 35047 ft | 443 kts | 185° |
| 2026-05-07 16:08 | 47.99655 | 6.67798 | 35042 ft | 443 kts | 185° |
| 2026-05-07 16:08 | 47.93485 | 6.67571 | 35042 ft | 442 kts | 185° |
| 2026-05-07 16:09 | 47.87365 | 6.67342 | 35048 ft | 442 kts | 185° |
| 2026-05-07 16:09 | 47.81206 | 6.67096 | 35022 ft | 442 kts | 185° |
| 2026-05-07 16:10 | 47.75086 | 6.66855 | 35031 ft | 441 kts | 185° |
| 2026-05-07 16:10 | 47.68939 | 6.66632 | 35034 ft | 441 kts | 185° |
| 2026-05-07 16:11 | 47.62806 | 6.66413 | 35045 ft | 441 kts | 185° |
| 2026-05-07 16:11 | 47.59742 | 6.66303 | 34558 ft | 438 kts | 185° |
| 2026-05-07 16:11 | 47.56669 | 6.66187 | 32790 ft | 448 kts | 185° |
| 2026-05-07 16:11 | 47.53537 | 6.66065 | 31375 ft | 449 kts | 185° |
| 2026-05-07 16:12 | 47.50467 | 6.65954 | 30826 ft | 432 kts | 185° |
| 2026-05-07 16:12 | 47.47541 | 6.65852 | 30127 ft | 420 kts | 185° |
| 2026-05-07 16:12 | 47.44635 | 6.65746 | 29179 ft | 412 kts | 185° |
| 2026-05-07 16:12 | 47.41788 | 6.65639 | 28240 ft | 406 kts | 185° |
| 2026-05-07 16:13 | 47.38981 | 6.65531 | 27320 ft | 399 kts | 185° |
| 2026-05-07 16:13 | 47.36251 | 6.65426 | 26451 ft | 394 kts | 185° |
| 2026-05-07 16:13 | 47.33496 | 6.65321 | 25590 ft | 388 kts | 184° |
| 2026-05-07 16:13 | 47.30843 | 6.65225 | 24791 ft | 383 kts | 184° |
| 2026-05-07 16:14 | 47.28191 | 6.65130 | 24248 ft | 380 kts | 184° |
| 2026-05-07 16:14 | 47.25542 | 6.64968 | 24054 ft | 379 kts | 189° |
| 2026-05-07 16:14 | 47.22959 | 6.64218 | 24033 ft | 377 kts | 199° |
| 2026-05-07 16:14 | 47.20520 | 6.62813 | 23945 ft | 376 kts | 208° |
| 2026-05-07 16:15 | 47.18317 | 6.60823 | 23600 ft | 370 kts | 219° |
| 2026-05-07 16:15 | 47.16372 | 6.58346 | 23296 ft | 368 kts | 223° |
| 2026-05-07 16:15 | 47.14491 | 6.55858 | 23017 ft | 367 kts | 223° |
| 2026-05-07 16:15 | 47.12591 | 6.53370 | 22737 ft | 365 kts | 223° |
| 2026-05-07 16:16 | 47.10692 | 6.50899 | 22448 ft | 364 kts | 223° |
| 2026-05-07 16:16 | 47.08797 | 6.48435 | 22161 ft | 362 kts | 223° |
| 2026-05-07 16:16 | 47.06920 | 6.45992 | 21893 ft | 360 kts | 223° |
| 2026-05-07 16:16 | 47.05046 | 6.43547 | 21614 ft | 359 kts | 223° |
| 2026-05-07 16:17 | 47.03184 | 6.41117 | 21331 ft | 357 kts | 223° |
| 2026-05-07 16:17 | 47.01334 | 6.38699 | 21059 ft | 355 kts | 223° |
| 2026-05-07 16:17 | 46.99512 | 6.36322 | 20790 ft | 354 kts | 223° |
| 2026-05-07 16:17 | 46.97676 | 6.33931 | 20525 ft | 352 kts | 223° |
| 2026-05-07 16:18 | 46.95844 | 6.31552 | 20256 ft | 350 kts | 223° |
| 2026-05-07 16:18 | 46.94020 | 6.29187 | 19983 ft | 349 kts | 223° |
| 2026-05-07 16:18 | 46.92206 | 6.26836 | 19719 ft | 347 kts | 223° |
| 2026-05-07 16:18 | 46.90401 | 6.24496 | 19454 ft | 346 kts | 223° |
| 2026-05-07 16:19 | 46.88627 | 6.22191 | 19187 ft | 344 kts | 223° |
| 2026-05-07 16:19 | 46.86840 | 6.19865 | 18927 ft | 343 kts | 223° |
| 2026-05-07 16:19 | 46.85064 | 6.17548 | 18665 ft | 342 kts | 223° |
| 2026-05-07 16:19 | 46.83288 | 6.15226 | 18403 ft | 340 kts | 223° |
| 2026-05-07 16:20 | 46.81529 | 6.12929 | 18125 ft | 339 kts | 223° |
| 2026-05-07 16:20 | 46.79762 | 6.10631 | 17852 ft | 338 kts | 223° |
| 2026-05-07 16:20 | 46.78002 | 6.08352 | 17597 ft | 338 kts | 223° |
| 2026-05-07 16:20 | 46.76268 | 6.06109 | 17340 ft | 337 kts | 223° |
| 2026-05-07 16:21 | 46.74490 | 6.03811 | 17077 ft | 336 kts | 223° |
| 2026-05-07 16:21 | 46.72766 | 6.01581 | 16823 ft | 335 kts | 223° |
| 2026-05-07 16:21 | 46.71011 | 5.99344 | 16573 ft | 334 kts | 219° |
| 2026-05-07 16:21 | 46.68978 | 5.97712 | 16308 ft | 335 kts | 201° |
| 2026-05-07 16:22 | 46.66745 | 5.96677 | 16047 ft | 335 kts | 199° |
| 2026-05-07 16:22 | 46.64541 | 5.95693 | 15797 ft | 334 kts | 199° |
| 2026-05-07 16:22 | 46.62318 | 5.94709 | 15544 ft | 333 kts | 199° |
| 2026-05-07 16:22 | 46.60099 | 5.93730 | 15292 ft | 332 kts | 199° |
| 2026-05-07 16:23 | 46.57890 | 5.92756 | 15048 ft | 331 kts | 199° |
| 2026-05-07 16:23 | 46.55687 | 5.91784 | 14795 ft | 330 kts | 199° |
| 2026-05-07 16:23 | 46.53505 | 5.90860 | 14555 ft | 330 kts | 194° |
| 2026-05-07 16:23 | 46.51217 | 5.90483 | 14310 ft | 331 kts | 181° |
| 2026-05-07 16:24 | 46.48924 | 5.90876 | 14066 ft | 333 kts | 168° |
| 2026-05-07 16:24 | 46.46741 | 5.92024 | 13827 ft | 335 kts | 155° |
| 2026-05-07 16:24 | 46.44767 | 5.93819 | 13562 ft | 335 kts | 147° |
| 2026-05-07 16:24 | 46.42893 | 5.95702 | 13302 ft | 334 kts | 147° |
| 2026-05-07 16:25 | 46.40991 | 5.97609 | 13023 ft | 332 kts | 147° |
| 2026-05-07 16:25 | 46.39122 | 5.99479 | 12758 ft | 328 kts | 147° |
| 2026-05-07 16:25 | 46.37219 | 6.01250 | 12484 ft | 319 kts | 157° |
| 2026-05-07 16:25 | 46.35128 | 6.02125 | 12224 ft | 308 kts | 177° |
| 2026-05-07 16:26 | 46.33042 | 6.01924 | 11962 ft | 294 kts | 196° |
| 2026-05-07 16:26 | 46.31226 | 6.00823 | 11708 ft | 275 kts | 213° |
| 2026-05-07 16:26 | 46.29803 | 5.99080 | 11453 ft | 265 kts | 225° |
| 2026-05-07 16:26 | 46.28953 | 5.97820 | 11292 ft | 260 kts | 225° |
| 2026-05-07 16:27 | 46.27327 | 5.95443 | 10971 ft | 245 kts | 224° |
| 2026-05-07 16:27 | 46.26131 | 5.93706 | 10717 ft | 242 kts | 224° |
| 2026-05-07 16:27 | 46.24949 | 5.91988 | 10471 ft | 239 kts | 224° |
| 2026-05-07 16:27 | 46.23782 | 5.90293 | 10228 ft | 237 kts | 223° |
| 2026-05-07 16:28 | 46.22622 | 5.88606 | 9983 ft | 236 kts | 223° |
| 2026-05-07 16:28 | 46.21467 | 5.86927 | 9837 ft | 235 kts | 223° |
| 2026-05-07 16:28 | 46.20315 | 5.85249 | 9688 ft | 235 kts | 223° |
| 2026-05-07 16:28 | 46.19163 | 5.83574 | 9411 ft | 234 kts | 223° |
| 2026-05-07 16:29 | 46.18022 | 5.81912 | 9147 ft | 232 kts | 223° |
| 2026-05-07 16:29 | 46.16893 | 5.80274 | 8886 ft | 233 kts | 223° |
| 2026-05-07 16:29 | 46.15750 | 5.78623 | 8626 ft | 232 kts | 223° |
| 2026-05-07 16:29 | 46.14601 | 5.76974 | 8365 ft | 233 kts | 223° |
| 2026-05-07 16:30 | 46.13315 | 5.75608 | 8101 ft | 229 kts | 199° |
| 2026-05-07 16:30 | 46.11765 | 5.75395 | 7855 ft | 225 kts | 170° |
| 2026-05-07 16:30 | 46.10236 | 5.75945 | 7601 ft | 227 kts | 163° |
| 2026-05-07 16:30 | 46.08725 | 5.76609 | 7350 ft | 228 kts | 163° |
| 2026-05-07 16:31 | 46.07196 | 5.77286 | 7090 ft | 231 kts | 163° |
| 2026-05-07 16:31 | 46.05717 | 5.78170 | 6831 ft | 230 kts | 142° |
| 2026-05-07 16:31 | 46.04758 | 5.79966 | 6577 ft | 228 kts | 108° |
| 2026-05-07 16:31 | 46.04670 | 5.82200 | 6436 ft | 228 kts | 75° |
| 2026-05-07 16:32 | 46.05452 | 5.84161 | 6207 ft | 229 kts | 47° |
| 2026-05-07 16:32 | 46.06577 | 5.85793 | 5911 ft | 229 kts | 44° |
| 2026-05-07 16:32 | 46.07707 | 5.87400 | 5603 ft | 227 kts | 44° |
| 2026-05-07 16:32 | 46.08823 | 5.89014 | 5310 ft | 226 kts | 44° |
| 2026-05-07 16:33 | 46.09926 | 5.90618 | 5011 ft | 225 kts | 43° |
| 2026-05-07 16:33 | 46.11009 | 5.92196 | 4714 ft | 217 kts | 43° |
| 2026-05-07 16:33 | 46.12044 | 5.93704 | 4426 ft | 207 kts | 44° |
| 2026-05-07 16:33 | 46.13052 | 5.95173 | 4154 ft | 206 kts | 42° |
| 2026-05-07 16:34 | 46.14058 | 5.96639 | 3912 ft | 203 kts | 44° |
| 2026-05-07 16:34 | 46.15045 | 5.98079 | 3618 ft | 199 kts | 44° |
| 2026-05-07 16:34 | 46.15994 | 5.99465 | 3347 ft | 187 kts | 43° |
| 2026-05-07 16:34 | 46.16873 | 6.00749 | 3114 ft | 172 kts | 43° |
| 2026-05-07 16:35 | 46.17668 | 6.01911 | 2907 ft | 154 kts | 43° |
| 2026-05-07 16:35 | 46.18397 | 6.02977 | 2705 ft | 146 kts | 43° |
| 2026-05-07 16:35 | 46.19099 | 6.04002 | 2508 ft | 141 kts | 44° |
| 2026-05-07 16:35 | 46.19784 | 6.05004 | 2302 ft | 140 kts | 45° |
| 2026-05-07 16:36 | 46.20458 | 6.05992 | 2078 ft | 138 kts | 46° |
| 2026-05-07 16:36 | 46.21125 | 6.06979 | 1888 ft | 136 kts | 44° |
| 2026-05-07 16:36 | 46.21796 | 6.07956 | 1751 ft | 137 kts | 46° |
| 2026-05-07 16:36 | 46.22239 | 6.08601 | 1628 ft | 135 kts | 43° |
| 2026-05-07 16:37 | 46.22901 | 6.09568 | 1438 ft | 135 kts | 45° |
| 2026-05-07 16:37 | 46.23591 | 6.10580 | 1386 ft | 57 kts | 45° |
| 2026-05-07 16:37 | 46.23777 | 6.10849 | 1382 ft | 32 kts | 45° |
| 2026-05-07 16:37 | 46.23843 | 6.10946 | 1379 ft | 16 kts | 46° |
| 2026-05-07 16:38 | 46.23827 | 6.11078 | 1377 ft | 15 kts | 150° |
| 2026-05-07 16:38 | 46.23791 | 6.11088 | 1380 ft | 3 kts | 174° |
| 2026-05-07 16:38 | 46.23768 | 6.11090 | 1379 ft | 11 kts | 176° |
| 2026-05-07 16:38 | 46.23700 | 6.11070 | 1387 ft | 6 kts | 212° |
| 2026-05-07 16:39 | 46.23673 | 6.11031 | 1389 ft | 9 kts | 225° |
| 2026-05-07 16:39 | 46.23620 | 6.10954 | 1388 ft | 10 kts | 225° |
| 2026-05-07 16:39 | 46.23565 | 6.10877 | 1391 ft | 12 kts | 225° |
| 2026-05-07 16:39 | 46.23503 | 6.10785 | 1391 ft | 14 kts | 225° |
| 2026-05-07 16:40 | 46.23431 | 6.10679 | 1403 ft | 16 kts | 225° |
| 2026-05-07 16:40 | 46.23345 | 6.10564 | 1396 ft | 18 kts | 225° |
| 2026-05-07 16:40 | 46.23281 | 6.10537 | 1400 ft | 6 kts | 133° |
| 2026-05-07 16:40 | 46.23238 | 6.10586 | 1393 ft | 9 kts | 141° |
| 2026-05-07 16:41 | 46.23183 | 6.10654 | 1395 ft | 11 kts | 165° |
| 2026-05-07 16:41 | 46.23124 | 6.10599 | 1400 ft | 4 kts | 212° |
| 2026-05-07 16:41 | 46.23109 | 6.10577 | 1397 ft | 5 kts | 229° |
| 2026-05-07 16:41 | 46.23072 | 6.10590 | 1395 ft | 7 kts | 140° |
| 2026-05-07 16:42 | 46.23054 | 6.10614 | 1396 ft | 0 kts | 136° |